KRRL/RRL METAR and TAF weather

Enter ICAO airport designator
Station Type Date Time Source
KRRL METAR 2020/12/06 01:55 UTC NOAA

KRRL 060155Z AUTO 00000KT 10SM CLR M04/M06 A3010 RMK AO2 T10371060 TSNO


Station Type Date Time Source
KRRL Decoded METAR 2020/12/06 01:55 UTC NOAA

Merrill, Merrill Municipal Airport, WI, United States (KRRL) 45-11N 089-42W
Dec 05, 2020 - 08:55 PM EST / 2020.12.06 0155 UTC
Wind: Calm:0
Visibility: 10 mile(s):0
Sky conditions: clear
Temperature: 25.3 F (-3.7 C)
Dew Point: 21.2 F (-6.0 C)
Relative Humidity: 84%
Pressure (altimeter): 30.1 in. Hg (1019 hPa)
ob: KRRL 060155Z AUTO 00000KT 10SM CLR M04/M06 A3010 RMK AO2 T10371060 TSNO
cycle: 2

Station Type Date Time Source
KRRL TAF UTC NOAA

Error!

Example: see airport list